sensor_id;sensor_type;location;lat;lon;timestamp;pressure;altitude;pressure_sealevel;temperature;humidity
59443;BME280;45247;47.466;19.004;2023-05-27T00:01:04;100178.28;;;17.88;100.00
59443;BME280;45247;47.466;19.004;2023-05-27T00:03:32;100181.47;;;17.82;100.00
59443;BME280;45247;47.466;19.004;2023-05-27T00:06:01;100179.06;;;17.79;100.00
59443;BME280;45247;47.466;19.004;2023-05-27T00:08:30;100186.34;;;17.77;100.00
59443;BME280;45247;47.466;19.004;2023-05-27T00:10:59;100174.22;;;17.73;100.00
59443;BME280;45247;47.466;19.004;2023-05-27T00:13:27;100171.91;;;17.68;100.00
59443;BME280;45247;47.466;19.004;2023-05-27T00:15:55;100171.06;;;17.68;100.00
59443;BME280;45247;47.466;19.004;2023-05-27T00:18:23;100174.59;;;17.68;100.00
59443;BME280;45247;47.466;19.004;2023-05-27T00:20:52;100170.50;;;17.64;100.00
59443;BME280;45247;47.466;19.004;2023-05-27T00:23:20;100167.97;;;17.63;100.00
59443;BME280;45247;47.466;19.004;2023-05-27T00:25:49;100179.88;;;17.59;100.00
59443;BME280;45247;47.466;19.004;2023-05-27T00:28:18;100174.28;;;17.62;100.00
59443;BME280;45247;47.466;19.004;2023-05-27T00:30:46;100171.63;;;17.62;100.00
59443;BME280;45247;47.466;19.004;2023-05-27T00:33:14;100173.28;;;17.63;100.00
59443;BME280;45247;47.466;19.004;2023-05-27T00:35:43;100167.47;;;17.69;100.00
59443;BME280;45247;47.466;19.004;2023-05-27T00:38:11;100166.47;;;17.70;100.00
59443;BME280;45247;47.466;19.004;2023-05-27T00:40:39;100163.06;;;17.68;100.00
59443;BME280;45247;47.466;19.004;2023-05-27T00:43:09;100168.31;;;17.69;100.00
59443;BME280;45247;47.466;19.004;2023-05-27T00:45:37;100166.88;;;17.65;100.00
59443;BME280;45247;47.466;19.004;2023-05-27T00:48:05;100164.91;;;17.67;100.00
59443;BME280;45247;47.466;19.004;2023-05-27T00:50:34;100164.06;;;17.67;100.00
59443;BME280;45247;47.466;19.004;2023-05-27T00:53:02;100172.19;;;17.65;100.00
59443;BME280;45247;47.466;19.004;2023-05-27T00:55:30;100167.81;;;17.64;100.00
59443;BME280;45247;47.466;19.004;2023-05-27T00:57:59;100162.81;;;17.71;100.00
59443;BME280;45247;47.466;19.004;2023-05-27T01:00:29;100161.00;;;17.71;100.00
59443;BME280;45247;47.466;19.004;2023-05-27T01:02:58;100172.50;;;17.72;100.00
59443;BME280;45247;47.466;19.004;2023-05-27T01:05:26;100165.50;;;17.71;100.00
59443;BME280;45247;47.466;19.004;2023-05-27T01:08:03;100168.31;;;17.69;100.00
59443;BME280;45247;47.466;19.004;2023-05-27T01:10:39;100172.78;;;17.69;100.00
59443;BME280;45247;47.466;19.004;2023-05-27T01:13:13;100158.72;;;17.67;100.00
59443;BME280;45247;47.466;19.004;2023-05-27T01:15:46;100164.91;;;17.67;100.00
59443;BME280;45247;47.466;19.004;2023-05-27T01:18:16;100161.91;;;17.61;100.00
59443;BME280;45247;47.466;19.004;2023-05-27T01:20:47;100157.44;;;17.61;100.00
59443;BME280;45247;47.466;19.004;2023-05-27T01:23:18;100158.53;;;17.59;100.00
59443;BME280;45247;47.466;19.004;2023-05-27T01:25:46;100155.84;;;17.59;100.00
59443;BME280;45247;47.466;19.004;2023-05-27T01:28:15;100149.69;;;17.58;100.00
59443;BME280;45247;47.466;19.004;2023-05-27T01:30:43;100157.53;;;17.60;100.00
59443;BME280;45247;47.466;19.004;2023-05-27T01:33:14;100149.09;;;17.55;100.00
59443;BME280;45247;47.466;19.004;2023-05-27T01:35:46;100154.16;;;17.58;100.00
59443;BME280;45247;47.466;19.004;2023-05-27T01:38:21;100142.66;;;17.57;100.00
59443;BME280;45247;47.466;19.004;2023-05-27T01:40:51;100152.47;;;17.57;100.00
59443;BME280;45247;47.466;19.004;2023-05-27T01:43:21;100147.66;;;17.50;100.00
59443;BME280;45247;47.466;19.004;2023-05-27T01:45:51;100155.66;;;17.50;100.00
59443;BME280;45247;47.466;19.004;2023-05-27T01:48:20;100158.59;;;17.47;100.00
59443;BME280;45247;47.466;19.004;2023-05-27T01:50:48;100149.16;;;17.43;100.00
59443;BME280;45247;47.466;19.004;2023-05-27T01:53:16;100150.13;;;17.42;100.00
59443;BME280;45247;47.466;19.004;2023-05-27T01:55:45;100143.34;;;17.38;100.00
59443;BME280;45247;47.466;19.004;2023-05-27T01:58:14;100135.88;;;17.32;100.00
59443;BME280;45247;47.466;19.004;2023-05-27T02:00:42;100140.22;;;17.33;100.00
59443;BME280;45247;47.466;19.004;2023-05-27T02:03:10;100146.69;;;17.31;100.00
59443;BME280;45247;47.466;19.004;2023-05-27T02:05:38;100145.09;;;17.28;100.00
59443;BME280;45247;47.466;19.004;2023-05-27T02:08:07;100148.50;;;17.30;100.00
59443;BME280;45247;47.466;19.004;2023-05-27T02:10:35;100141.72;;;17.26;100.00
59443;BME280;45247;47.466;19.004;2023-05-27T02:13:04;100142.47;;;17.17;100.00
59443;BME280;45247;47.466;19.004;2023-05-27T02:15:33;100146.38;;;17.13;100.00
59443;BME280;45247;47.466;19.004;2023-05-27T02:18:01;100136.44;;;17.15;100.00
59443;BME280;45247;47.466;19.004;2023-05-27T02:20:29;100141.16;;;17.11;100.00
59443;BME280;45247;47.466;19.004;2023-05-27T02:22:57;100143.00;;;17.11;100.00
59443;BME280;45247;47.466;19.004;2023-05-27T02:25:25;100137.19;;;17.06;100.00
59443;BME280;45247;47.466;19.004;2023-05-27T02:27:54;100137.91;;;17.08;100.00
59443;BME280;45247;47.466;19.004;2023-05-27T02:30:24;100131.63;;;17.09;100.00
59443;BME280;45247;47.466;19.004;2023-05-27T02:32:53;100140.56;;;17.08;100.00
59443;BME280;45247;47.466;19.004;2023-05-27T02:35:22;100125.41;;;17.08;100.00
59443;BME280;45247;47.466;19.004;2023-05-27T02:37:50;100135.25;;;17.08;100.00
59443;BME280;45247;47.466;19.004;2023-05-27T02:40:24;100137.81;;;17.09;100.00
59443;BME280;45247;47.466;19.004;2023-05-27T02:42:52;100136.97;;;17.09;100.00
59443;BME280;45247;47.466;19.004;2023-05-27T02:45:21;100135.00;;;17.11;100.00
59443;BME280;45247;47.466;19.004;2023-05-27T02:47:50;100132.31;;;17.11;100.00
59443;BME280;45247;47.466;19.004;2023-05-27T02:50:21;100141.16;;;17.11;100.00
59443;BME280;45247;47.466;19.004;2023-05-27T02:52:49;100145.66;;;17.11;100.00
59443;BME280;45247;47.466;19.004;2023-05-27T02:55:17;100142.75;;;17.14;100.00
59443;BME280;45247;47.466;19.004;2023-05-27T02:57:46;100145.72;;;17.20;100.00
59443;BME280;45247;47.466;19.004;2023-05-27T03:00:15;100140.09;;;17.14;100.00
59443;BME280;45247;47.466;19.004;2023-05-27T03:02:44;100141.75;;;17.15;100.00
59443;BME280;45247;47.466;19.004;2023-05-27T03:05:14;100140.09;;;17.14;100.00
59443;BME280;45247;47.466;19.004;2023-05-27T03:07:42;100141.75;;;17.15;100.00
59443;BME280;45247;47.466;19.004;2023-05-27T03:10:10;100145.03;;;17.18;100.00
59443;BME280;45247;47.466;19.004;2023-05-27T03:12:39;100144.88;;;17.20;100.00
59443;BME280;45247;47.466;19.004;2023-05-27T03:15:07;100154.19;;;17.25;100.00
59443;BME280;45247;47.466;19.004;2023-05-27T03:17:36;100150.56;;;17.26;100.00
59443;BME280;45247;47.466;19.004;2023-05-27T03:20:05;100152.84;;;17.31;100.00
59443;BME280;45247;47.466;19.004;2023-05-27T03:22:36;100157.91;;;17.34;100.00
59443;BME280;45247;47.466;19.004;2023-05-27T03:25:05;100155.13;;;17.36;100.00
59443;BME280;45247;47.466;19.004;2023-05-27T03:27:34;100152.38;;;17.47;100.00
59443;BME280;45247;47.466;19.004;2023-05-27T03:30:03;100154.09;;;17.48;100.00
59443;BME280;45247;47.466;19.004;2023-05-27T03:32:32;100162.41;;;17.55;100.00
59443;BME280;45247;47.466;19.004;2023-05-27T03:35:00;100157.28;;;17.63;100.00
59443;BME280;45247;47.466;19.004;2023-05-27T03:37:28;100161.84;;;17.72;100.00
59443;BME280;45247;47.466;19.004;2023-05-27T03:39:58;100166.91;;;17.86;100.00
59443;BME280;45247;47.466;19.004;2023-05-27T03:42:26;100169.59;;;17.96;100.00
59443;BME280;45247;47.466;19.004;2023-05-27T03:44:54;100163.88;;;18.00;100.00
59443;BME280;45247;47.466;19.004;2023-05-27T03:47:22;100164.31;;;18.36;100.00
59443;BME280;45247;47.466;19.004;2023-05-27T03:49:50;100163.06;;;18.40;100.00
59443;BME280;45247;47.466;19.004;2023-05-27T03:52:19;100155.59;;;18.74;100.00
59443;BME280;45247;47.466;19.004;2023-05-27T03:54:47;100159.97;;;19.82;90.56
59443;BME280;45247;47.466;19.004;2023-05-27T03:57:17;100149.44;;;20.55;82.53
59443;BME280;45247;47.466;19.004;2023-05-27T03:59:45;100164.03;;;21.16;76.26
59443;BME280;45247;47.466;19.004;2023-05-27T04:02:13;100150.88;;;21.66;71.78
59443;BME280;45247;47.466;19.004;2023-05-27T04:04:42;100156.78;;;21.96;70.58
59443;BME280;45247;47.466;19.004;2023-05-27T04:07:10;100163.41;;;22.10;67.42
59443;BME280;45247;47.466;19.004;2023-05-27T04:09:39;100163.19;;;21.51;68.87
59443;BME280;45247;47.466;19.004;2023-05-27T04:12:08;100160.84;;;20.85;73.06
59443;BME280;45247;47.466;19.004;2023-05-27T04:14:38;100163.66;;;20.28;78.13
59443;BME280;45247;47.466;19.004;2023-05-27T04:17:06;100163.28;;;20.78;75.49
59443;BME280;45247;47.466;19.004;2023-05-27T04:19:34;100157.63;;;21.96;67.54
59443;BME280;45247;47.466;19.004;2023-05-27T04:22:03;100160.97;;;22.50;64.31
59443;BME280;45247;47.466;19.004;2023-05-27T04:24:31;100159.81;;;23.20;61.14
59443;BME280;45247;47.466;19.004;2023-05-27T04:27:00;100159.84;;;23.53;58.96
59443;BME280;45247;47.466;19.004;2023-05-27T04:29:30;100170.59;;;23.93;57.64
59443;BME280;45247;47.466;19.004;2023-05-27T04:32:00;100168.56;;;24.67;54.20
59443;BME280;45247;47.466;19.004;2023-05-27T04:34:28;100172.63;;;24.08;55.54
59443;BME280;45247;47.466;19.004;2023-05-27T04:36:57;100170.47;;;24.51;53.97
59443;BME280;45247;47.466;19.004;2023-05-27T04:39:27;100178.06;;;24.86;53.24
59443;BME280;45247;47.466;19.004;2023-05-27T04:41:56;100185.56;;;25.30;52.75
59443;BME280;45247;47.466;19.004;2023-05-27T04:44:24;100168.25;;;25.85;50.33
59443;BME280;45247;47.466;19.004;2023-05-27T04:46:55;100178.03;;;25.48;50.25
59443;BME280;45247;47.466;19.004;2023-05-27T04:49:24;100174.16;;;26.18;49.25
59443;BME280;45247;47.466;19.004;2023-05-27T04:51:53;100178.59;;;25.59;49.58
59443;BME280;45247;47.466;19.004;2023-05-27T04:54:21;100169.47;;;25.97;49.17
59443;BME280;45247;47.466;19.004;2023-05-27T04:56:50;100173.66;;;25.85;48.87
59443;BME280;45247;47.466;19.004;2023-05-27T04:59:19;100170.88;;;26.67;47.14
59443;BME280;45247;47.466;19.004;2023-05-27T05:01:51;100176.19;;;25.87;47.70
59443;BME280;45247;47.466;19.004;2023-05-27T05:04:35;100178.03;;;27.48;45.79
59443;BME280;45247;47.466;19.004;2023-05-27T05:07:03;100172.16;;;26.86;45.38
59443;BME280;45247;47.466;19.004;2023-05-27T05:09:32;100177.97;;;26.83;45.40
59443;BME280;45247;47.466;19.004;2023-05-27T05:12:01;100187.41;;;26.43;45.88
59443;BME280;45247;47.466;19.004;2023-05-27T05:14:31;100186.41;;;27.31;44.73
59443;BME280;45247;47.466;19.004;2023-05-27T05:16:59;100183.00;;;26.86;45.09
59443;BME280;45247;47.466;19.004;2023-05-27T05:19:28;100183.97;;;26.64;44.56
59443;BME280;45247;47.466;19.004;2023-05-27T05:21:57;100202.63;;;26.59;44.71
59443;BME280;45247;47.466;19.004;2023-05-27T05:24:26;100203.88;;;24.89;48.21
59443;BME280;45247;47.466;19.004;2023-05-27T05:26:54;100205.41;;;24.28;50.07
59443;BME280;45247;47.466;19.004;2023-05-27T05:29:22;100203.28;;;25.02;49.64
59443;BME280;45247;47.466;19.004;2023-05-27T05:31:50;100206.41;;;26.20;46.44
59443;BME280;45247;47.466;19.004;2023-05-27T05:34:19;100202.09;;;26.49;46.25
59443;BME280;45247;47.466;19.004;2023-05-27T05:36:47;100211.06;;;27.00;44.10
59443;BME280;45247;47.466;19.004;2023-05-27T05:39:16;100204.56;;;26.35;44.17
59443;BME280;45247;47.466;19.004;2023-05-27T05:41:45;100209.59;;;26.09;45.13
59443;BME280;45247;47.466;19.004;2023-05-27T05:44:15;100199.72;;;26.90;43.86
59443;BME280;45247;47.466;19.004;2023-05-27T05:46:43;100206.28;;;27.02;43.92
59443;BME280;45247;47.466;19.004;2023-05-27T05:49:12;100206.53;;;28.42;42.28
59443;BME280;45247;47.466;19.004;2023-05-27T05:51:40;100211.22;;;27.92;42.01
59443;BME280;45247;47.466;19.004;2023-05-27T05:54:08;100212.31;;;28.05;42.05
59443;BME280;45247;47.466;19.004;2023-05-27T05:56:37;100220.56;;;26.60;43.05
59443;BME280;45247;47.466;19.004;2023-05-27T05:59:06;100220.50;;;25.55;46.22
59443;BME280;45247;47.466;19.004;2023-05-27T06:01:34;100229.66;;;24.91;46.81
59443;BME280;45247;47.466;19.004;2023-05-27T06:04:03;100229.84;;;25.21;46.58
59443;BME280;45247;47.466;19.004;2023-05-27T06:06:33;100238.66;;;23.79;49.69
59443;BME280;45247;47.466;19.004;2023-05-27T06:09:01;100238.19;;;23.01;50.66
59443;BME280;45247;47.466;19.004;2023-05-27T06:11:30;100247.50;;;22.80;52.55
